In Rescue
 
Open Full Screen Window  High Contrast Mode
January 28, 2020 11:21 PM CST
Weather Information
Wind Direction
  ---
Wind Speed
  00 kt (0 mph)
Wind Gust
  00 kt (0 mph)
Altimeter
30.16 in
Visibility
10 SM
Temperature
-09° C
16° F
Dewpoint
-09° C
16° F
Humidity
100%
1hr Rain Fall
00.00 in.
24hr Rain Fall
00.00 in.
Sky Condition
Overcast @ 900 ft
IFR

METAR KPEX 290521Z AUTO 00000KT 10SM OVC009 M09/M09 A3016 RMK AO2 T10881092

FAA Disclaimer: The data displayed is for advisory purposes only and is not to be used for flight planning or operations.